Lexington, SC (29071)

12:46 AM EST on February 12, 2016 (GMT -0500)
Barre St & Third Ave | | Change Station
CLOSE
Current Station
Personal Weather Station
Location: Lexington, SC
Elevation: 420 ft
Nearby Weather Stations

Elev 420 ft 33.98 °N, 81.24 °W | Updated 14 minutes ago

Mostly Cloudy
Mostly Cloudy
38.1 °F
Feels Like 38 °F
N
0.0
Wind Variable Wind from SSE

Today
High -- | Low -- °F
--% Chance of Precip.
Yesterday
High -- | Low -- °F
Precip. -- in
Pressure 30.22 in
Visibility 10.0 miles
Clouds Overcast 7000 ft
Windchill 38 °F
Dew Point 28 °F
Humidity 67%
Rainfall 0.00 in
Snow Depth Not available.
7:13 AM 6:05 PM
Waxing Crescent, 17% visible
METAR KCAE 120456Z 00000KT 10SM OVC070 06/M04 A3021 RMK AO2 SLP231 T00561039 401281033
Pressure 30.22 in
Visibility 10.0 miles
Clouds Overcast 7000 ft
Windchill 38 °F
Dew Point 28 °F
Humidity 67%
Rainfall 0.00 in
Snow Depth Not available.
7:13 AM 6:05 PM
Waxing Crescent, 17% visible
METAR KCAE 120456Z 00000KT 10SM OVC070 06/M04 A3021 RMK AO2 SLP231 T00561039 401281033

10-Day Weather Forecast

Almanac

Astronomy

Feb. 12, 2016 Rise Set
Actual Time
Civil Twilight
Nautical Twilight
Astronomical Twilight
Moon
Length of Visible Light
Length of Day
Tomorrow will be .
, % of the Moon is Illuminated

Today's Extremes

State Highs State Lows

Community

WunderPhotos

Upload Photos

1,892,269 photos uploaded!

WunderBlog® & News

Nearby

Air Quality

  Air Quality AQ Index Pollutant
Not available.

Snow Depth

Station Depth Elevation

Earthquake Activity

City Distance Mag. Time & Date
Minimum magnitude displayed is 2.5.

Coastal Water Temperatures

Place Temperature

Stations

Nearby Weather Stations

Station Location Temp. Windchill Dew Point Humidity Wind Precip. Elev Updated Type
                   

Watches & Warnings

There are currently no watches in effect.